Truth — WYV5559 — position and weather

sailwx.info

Track history (hours):
 
Tides and Currents Weather Stations Pressure Air Temp Water Temp Dewpoint Dewpoint Depression Visibility Wind Speed Wind Dir Waves Ship Positions

Truth

Owner: TRUTH AQUATIES INC, SANTA BARBARA, CA. More information available from US FCC via Universal Licensing System and Coast Guard Vessel Documentation Center.

Last reported at 2018-Jun-19 17:57 UTC. Time now 2018-Jun-19 17:57 UTC.
Position N 34°24' W 119°42'.

Length 22 m.

Type: Diving. MMSI: 367384840.

Date/timePositionNaut miles runAvg speedWind from/ knotsBaromVisibWave heightAir tempDewpointWater temp
2018-Jun-19 17:57N 34°24' W 119°42'0 0.0
2018-Jun-19 16:06N 34°24' W 119°42'0 0.0
2018-Jun-19 12:24N 34°24' W 119°42'0 0.0
2018-Jun-19 11:57N 34°24' W 119°42'0 0.0
2018-Jun-19 11:12N 34°24' W 119°42'0 0.0
2018-Jun-19 10:54N 34°24' W 119°42'0 0.0
2018-Jun-19 10:12N 34°24' W 119°42'0 0.0
2018-Jun-19 09:57N 34°24' W 119°42'0 0.0
2018-Jun-19 05:33N 34°24' W 119°42'0 0.0
2018-Jun-19 04:18N 34°24' W 119°42'0 0.0
2018-Jun-19 03:54N 34°24' W 119°42'0 0.1
2018-Jun-19 03:27N 34°24' W 119°41'0 0.0
2018-Jun-18 19:06N 34°24' W 119°42'0 0.0
2018-Jun-18 17:48N 34°24' W 119°42'0 0.0
2018-Jun-18 17:27N 34°24' W 119°42'0 0.3
2018-Jun-18 16:52N 34°24' W 119°42'0 0.0
2018-Jun-18 11:49N 34°24' W 119°42'0 0.0
2018-Jun-18 11:07N 34°24' W 119°42'0 0.0
2018-Jun-18 00:10N 34°24' W 119°41'2 9.9
2018-Jun-17 23:56N 34°22' W 119°42'6 9.9
2018-Jun-17 23:22N 34°17' W 119°46'4 9.9
2018-Jun-17 23:00N 34°14' W 119°47'6 9.7
2018-Jun-17 22:22N 34°09' W 119°50'4 9.1
2018-Jun-17 21:58N 34°06' W 119°53'1 0.7
2018-Jun-17 20:07N 34°04' W 119°54'2 5.5
2018-Jun-17 19:49N 34°04' W 119°52'0 0.0
2018-Jun-17 13:57N 34°04' W 119°52'4 8.2
2018-Jun-17 13:27N 34°04' W 119°47'2 1.6
2018-Jun-17 12:16N 34°03' W 119°45'0 0.0
2018-Jun-17 11:46N 34°03' W 119°45'0 0.0
2018-Jun-17 11:22N 34°03' W 119°45'0 0.0
2018-Jun-17 10:55N 34°03' W 119°45'0 0.0
2018-Jun-17 10:28N 34°03' W 119°45'0 0.0
2018-Jun-17 09:58N 34°03' W 119°45'0 0.0
2018-Jun-17 08:34N 34°03' W 119°45'0 0.0
2018-Jun-17 08:22N 34°03' W 119°45'0 0.0
2018-Jun-17 07:04N 34°03' W 119°45'0 0.0
2018-Jun-17 06:55N 34°03' W 119°45'0 0.0
2018-Jun-17 06:25N 34°03' W 119°45'0 0.0
2018-Jun-17 05:49N 34°03' W 119°45'0 0.0
2018-Jun-17 05:22N 34°03' W 119°45'0 0.0
2018-Jun-17 04:58N 34°03' W 119°45'0 0.0
2018-Jun-17 04:22N 34°03' W 119°45'0 0.0
2018-Jun-17 03:58N 34°03' W 119°45'0 0.0
2018-Jun-17 03:25N 34°03' W 119°45'0 0.0
2018-Jun-17 03:00N 34°03' W 119°45'3 5.4
2018-Jun-17 02:25N 34°06' W 119°47'0 0.5
2018-Jun-17 01:52N 34°06' W 119°47'3 6.2
2018-Jun-17 01:25N 34°04' W 119°45'1 1.5
2018-Jun-17 00:53N 34°03' W 119°45'2 4.0
2018-Jun-17 00:28N 34°03' W 119°43'1 0.7
2018-Jun-16 23:17N 34°02' W 119°42'0 0.0
2018-Jun-16 22:50N 34°02' W 119°42'0 0.0
2018-Jun-16 22:20N 34°02' W 119°42'0 0.0
2018-Jun-16 21:59N 34°02' W 119°42'0 0.0
2018-Jun-16 21:26N 34°02' W 119°42'0 0.0
2018-Jun-16 20:59N 34°02' W 119°42'0 0.0
2018-Jun-16 20:29N 34°02' W 119°42'0 0.4
2018-Jun-16 19:59N 34°02' W 119°42'1 0.8
2018-Jun-16 19:04N 34°03' W 119°43'0 0.0
2018-Jun-16 18:58N 34°03' W 119°43'0 0.0
2018-Jun-16 18:25N 34°03' W 119°43'0 0.0
2018-Jun-16 17:58N 34°03' W 119°43'2 1.6
2018-Jun-16 16:38N 34°03' W 119°45'0 0.0
2018-Jun-16 16:29N 34°03' W 119°45'0 0.0
2018-Jun-16 15:56N 34°03' W 119°45'0 0.0
2018-Jun-16 15:23N 34°03' W 119°45'0 0.0
2018-Jun-16 14:59N 34°03' W 119°45'0 0.0
2018-Jun-16 14:23N 34°03' W 119°45'0 0.0
2018-Jun-16 13:59N 34°03' W 119°45'0 0.0
2018-Jun-16 13:30N 34°03' W 119°45'4 8.0
2018-Jun-16 13:00N 34°07' W 119°47'510.3
2018-Jun-16 12:29N 34°12' W 119°46'510.0
2018-Jun-16 11:59N 34°17' W 119°44'5 9.8
2018-Jun-16 11:30N 34°21' W 119°42'3 1.6
2018-Jun-16 09:22N 34°24' W 119°42'0 0.0
2018-Jun-16 07:46N 34°24' W 119°42'0 0.0
2018-Jun-16 00:21N 34°24' W 119°41'3 7.5
2018-Jun-16 00:00N 34°22' W 119°43'610.0
2018-Jun-15 23:25N 34°17' W 119°46'10 9.9
2018-Jun-15 22:24N 34°07' W 119°50'3 1.6
2018-Jun-15 20:20N 34°04' W 119°51'0 0.0
2018-Jun-15 19:32N 34°04' W 119°51'0 0.4
2018-Jun-15 19:23N 34°04' W 119°51'2 0.7
2018-Jun-15 17:17N 34°05' W 119°52'310.6
2018-Jun-15 17:00N 34°08' W 119°50'610.2
2018-Jun-15 16:24N 34°14' W 119°47'7 9.9
2018-Jun-15 15:42N 34°20' W 119°43'210.3
2018-Jun-15 15:28N 34°22' W 119°42'3 0.2
2018-Jun-15 01:11N 34°24' W 119°42'0 0.0
2018-Jun-15 00:53N 34°24' W 119°42'0 0.0
2018-Jun-14 23:11N 34°24' W 119°42'0 0.0
2018-Jun-14 22:59N 34°24' W 119°42'0 0.0
2018-Jun-14 21:50N 34°24' W 119°42'0 0.0
2018-Jun-14 21:17N 34°24' W 119°42'0 0.0
2018-Jun-14 20:53N 34°24' W 119°42'0 0.0
2018-Jun-14 20:26N 34°24' W 119°42'0 0.0
2018-Jun-14 16:17N 34°24' W 119°42'0 0.0
2018-Jun-14 13:50N 34°24' W 119°42'0 0.0
2018-Jun-14 12:17N 34°24' W 119°42'0 0.0
2018-Jun-14 11:53N 34°24' W 119°42'0 0.0
2018-Jun-14 09:44N 34°24' W 119°42'0 0.0
2018-Jun-14 08:08N 34°24' W 119°42'0 0.0
2018-Jun-14 06:41N 34°24' W 119°42'0 0.0
2018-Jun-14 05:50N 34°24' W 119°42'0 0.0
2018-Jun-14 05:11N 34°24' W 119°42'0 0.0
2018-Jun-14 04:59N 34°24' W 119°42'0 0.0
2018-Jun-14 04:26N 34°24' W 119°42'0 0.0
2018-Jun-14 03:59N 34°24' W 119°42'0 0.0
2018-Jun-14 03:29N 34°24' W 119°42'0 0.0
2018-Jun-13 23:14N 34°24' W 119°42'0 0.0
2018-Jun-13 22:59N 34°24' W 119°42'0 0.0
2018-Jun-13 22:11N 34°24' W 119°42'0 0.0
2018-Jun-13 21:47N 34°24' W 119°42'0 0.0
2018-Jun-13 21:20N 34°24' W 119°42'0 0.0
2018-Jun-13 19:02N 34°24' W 119°42'0 0.0
2018-Jun-13 18:59N 34°24' W 119°42'0 0.0
2018-Jun-13 18:29N 34°24' W 119°42'0 0.0
2018-Jun-13 17:59N 34°24' W 119°42'0 0.0
2018-Jun-13 17:29N 34°24' W 119°42'0 0.0
2018-Jun-13 16:59N 34°24' W 119°42'0 0.0
2018-Jun-13 12:12N 34°24' W 119°42'0 0.0
2018-Jun-13 11:59N 34°24' W 119°42'0 0.0
2018-Jun-13 11:29N 34°24' W 119°42'0 0.0
2018-Jun-13 10:20N 34°24' W 119°42'0 0.0
2018-Jun-13 08:14N 34°24' W 119°42'0 0.0
2018-Jun-13 07:56N 34°24' W 119°42'0 0.0
2018-Jun-13 05:50N 34°24' W 119°42'0 0.0
2018-Jun-13 04:35N 34°24' W 119°42'0 0.0
2018-Jun-13 04:29N 34°24' W 119°42'0 0.0
2018-Jun-13 03:59N 34°24' W 119°42'0 0.0
2018-Jun-13 02:38N 34°24' W 119°42'0 0.0
2018-Jun-13 02:11N 34°24' W 119°42'0 0.0
2018-Jun-13 01:57N 34°24' W 119°42'0 0.0
2018-Jun-13 01:29N 34°24' W 119°42'0 0.0
2018-Jun-13 00:56N 34°24' W 119°42'0 0.1
2018-Jun-13 00:02N 34°24' W 119°41'0 0.0
2018-Jun-12 23:50N 34°24' W 119°41'1 1.5
2018-Jun-12 23:29N 34°24' W 119°41'510.7
2018-Jun-12 23:00N 34°19' W 119°40'611.2
2018-Jun-12 22:28N 34°13' W 119°40'610.9
2018-Jun-12 21:57N 34°07' W 119°39'2 5.6
2018-Jun-12 21:31N 34°05' W 119°38'0 0.2
2018-Jun-12 21:00N 34°05' W 119°38'1 2.0
2018-Jun-12 20:30N 34°05' W 119°37'2 3.3
2018-Jun-12 20:00N 34°04' W 119°36'2 3.9
2018-Jun-12 19:26N 34°03' W 119°33'0 0.0
2018-Jun-12 18:56N 34°03' W 119°33'0 0.1
2018-Jun-12 18:26N 34°03' W 119°33'0 0.0
2018-Jun-12 17:56N 34°03' W 119°33'0 0.0
2018-Jun-12 17:23N 34°03' W 119°33'0 0.0
2018-Jun-12 16:59N 34°03' W 119°33'0 0.2
2018-Jun-12 16:25N 34°03' W 119°33'0 0.0
2018-Jun-12 15:52N 34°03' W 119°33'0 0.0
2018-Jun-12 15:28N 34°03' W 119°33'0 0.0
2018-Jun-12 14:58N 34°03' W 119°33'0 0.1
2018-Jun-12 14:22N 34°03' W 119°33'0 0.0
2018-Jun-12 13:43N 34°03' W 119°33'0 1.4
2018-Jun-12 13:30N 34°03' W 119°33'3 0.2
2018-Jun-11 22:49N 34°01' W 119°32'3 9.5
2018-Jun-11 22:27N 34°01' W 119°28'4 7.4
2018-Jun-11 21:55N 34°01' W 119°23'1 1.0
2018-Jun-11 21:25N 34°01' W 119°22'0 0.0
2018-Jun-11 20:55N 34°01' W 119°22'0 0.0
2018-Jun-11 20:25N 34°01' W 119°22'0 0.0
2018-Jun-11 19:58N 34°01' W 119°22'0 0.0
2018-Jun-11 19:28N 34°01' W 119°22'0 0.0
2018-Jun-11 18:58N 34°01' W 119°22'0 0.0
2018-Jun-11 18:30N 34°01' W 119°22'1 1.0
2018-Jun-11 18:00N 34°01' W 119°22'0 0.0
2018-Jun-11 17:30N 34°01' W 119°22'0 0.0
2018-Jun-11 17:00N 34°01' W 119°22'0 0.0
2018-Jun-11 16:30N 34°01' W 119°22'0 0.0
2018-Jun-11 15:57N 34°01' W 119°22'0 0.0
2018-Jun-11 15:30N 34°01' W 119°22'0 0.0
2018-Jun-11 15:00N 34°01' W 119°22'0 0.0
2018-Jun-11 14:27N 34°01' W 119°22'0 0.0
2018-Jun-11 14:00N 34°01' W 119°22'4 7.7
2018-Jun-11 13:30N 34°01' W 119°26'4 0.5
2018-Jun-11 04:37N 34°02' W 119°31'210.7
2018-Jun-11 04:28N 34°03' W 119°33'5 9.8
2018-Jun-11 04:00N 34°03' W 119°38'3 5.3
2018-Jun-11 03:25N 34°02' W 119°42'0 0.0
2018-Jun-11 01:40N 34°02' W 119°42'0 0.2
2018-Jun-11 01:13N 34°02' W 119°42'3 9.1
2018-Jun-11 00:56N 34°03' W 119°45'510.0
2018-Jun-11 00:25N 34°04' W 119°51'510.8
2018-Jun-10 23:59N 34°05' W 119°57'5 9.3
2018-Jun-10 23:27N 34°02' W 120°02'2 0.7
2018-Jun-10 20:36N 34°01' W 120°03'0 0.0
2018-Jun-10 17:39N 34°01' W 120°03'0 0.0
2018-Jun-10 17:09N 34°01' W 120°03'0 0.0
2018-Jun-10 16:48N 34°01' W 120°03'0 0.0
2018-Jun-10 16:21N 34°01' W 120°03'0 0.0
2018-Jun-10 15:18N 34°01' W 120°03'2 5.7
2018-Jun-10 14:59N 34°02' W 120°02'10 9.8
2018-Jun-10 14:00N 34°11' W 120°05'5 9.6
2018-Jun-10 13:29N 34°16' W 120°07'5 9.7
2018-Jun-10 12:58N 34°21' W 120°09'4 7.8
2018-Jun-10 12:30N 34°25' W 120°09'610.5
2018-Jun-10 11:56N 34°25' W 120°02'510.3
2018-Jun-10 11:27N 34°24' W 119°56'510.3
2018-Jun-10 10:59N 34°23' W 119°50'7 1.3
2018-Jun-10 05:10N 34°24' W 119°41'0 0.2
2018-Jun-10 04:52N 34°24' W 119°42'0 0.0
2018-Jun-10 00:32N 34°24' W 119°42'0 2.0
2018-Jun-10 00:27N 34°24' W 119°41'7 9.2
2018-Jun-09 23:44N 34°18' W 119°44'310.1
2018-Jun-09 23:24N 34°15' W 119°46'5 9.8
2018-Jun-09 22:51N 34°10' W 119°48'410.0
2018-Jun-09 22:24N 34°06' W 119°50'2 3.7
2018-Jun-09 21:50N 34°04' W 119°51'0 0.0
2018-Jun-09 21:05N 34°04' W 119°51'0 0.0
2018-Jun-09 20:50N 34°04' W 119°51'0 0.0
2018-Jun-09 20:17N 34°04' W 119°51'0 0.0
2018-Jun-09 19:54N 34°04' W 119°51'2 0.9
2018-Jun-09 18:03N 34°04' W 119°53'0 0.0
2018-Jun-09 17:35N 34°04' W 119°53'0 0.0
2018-Jun-09 17:28N 34°04' W 119°53'4 8.0
2018-Jun-09 17:00N 34°07' W 119°50'  
Track history (hours):
 
Tides and Currents Weather Stations Pressure Air Temp Water Temp Dewpoint Dewpoint Depression Visibility Wind Speed Wind Dir Waves Ship Positions

Truth

Owner: TRUTH AQUATIES INC, SANTA BARBARA, CA. More information available from US FCC via Universal Licensing System and Coast Guard Vessel Documentation Center.

Last reported at 2018-Jun-19 17:57 UTC. Time now 2018-Jun-19 17:57 UTC.
Position N 34°24' W 119°42'.

Length 22 m.

Type: Diving. MMSI: 367384840.

Date/timePositionNaut miles runAvg speedWind from/ knotsBaromVisibWave heightAir tempDewpointWater temp
2018-Jun-19 17:57N 34°24' W 119°42'0 0.0
2018-Jun-19 16:06N 34°24' W 119°42'0 0.0
2018-Jun-19 12:24N 34°24' W 119°42'0 0.0
2018-Jun-19 11:57N 34°24' W 119°42'0 0.0
2018-Jun-19 11:12N 34°24' W 119°42'0 0.0
2018-Jun-19 10:54N 34°24' W 119°42'0 0.0
2018-Jun-19 10:12N 34°24' W 119°42'0 0.0
2018-Jun-19 09:57N 34°24' W 119°42'0 0.0
2018-Jun-19 05:33N 34°24' W 119°42'0 0.0
2018-Jun-19 04:18N 34°24' W 119°42'0 0.0
2018-Jun-19 03:54N 34°24' W 119°42'0 0.1
2018-Jun-19 03:27N 34°24' W 119°41'0 0.0
2018-Jun-18 19:06N 34°24' W 119°42'0 0.0
2018-Jun-18 17:48N 34°24' W 119°42'0 0.0
2018-Jun-18 17:27N 34°24' W 119°42'0 0.3
2018-Jun-18 16:52N 34°24' W 119°42'0 0.0
2018-Jun-18 11:49N 34°24' W 119°42'0 0.0
2018-Jun-18 11:07N 34°24' W 119°42'0 0.0
2018-Jun-18 00:10N 34°24' W 119°41'2 9.9
2018-Jun-17 23:56N 34°22' W 119°42'6 9.9
2018-Jun-17 23:22N 34°17' W 119°46'4 9.9
2018-Jun-17 23:00N 34°14' W 119°47'6 9.7
2018-Jun-17 22:22N 34°09' W 119°50'4 9.1
2018-Jun-17 21:58N 34°06' W 119°53'1 0.7
2018-Jun-17 20:07N 34°04' W 119°54'2 5.5
2018-Jun-17 19:49N 34°04' W 119°52'0 0.0
2018-Jun-17 13:57N 34°04' W 119°52'4 8.2
2018-Jun-17 13:27N 34°04' W 119°47'2 1.6
2018-Jun-17 12:16N 34°03' W 119°45'0 0.0
2018-Jun-17 11:46N 34°03' W 119°45'0 0.0
2018-Jun-17 11:22N 34°03' W 119°45'0 0.0
2018-Jun-17 10:55N 34°03' W 119°45'0 0.0
2018-Jun-17 10:28N 34°03' W 119°45'0 0.0
2018-Jun-17 09:58N 34°03' W 119°45'0 0.0
2018-Jun-17 08:34N 34°03' W 119°45'0 0.0
2018-Jun-17 08:22N 34°03' W 119°45'0 0.0
2018-Jun-17 07:04N 34°03' W 119°45'0 0.0
2018-Jun-17 06:55N 34°03' W 119°45'0 0.0
2018-Jun-17 06:25N 34°03' W 119°45'0 0.0
2018-Jun-17 05:49N 34°03' W 119°45'0 0.0
2018-Jun-17 05:22N 34°03' W 119°45'0 0.0
2018-Jun-17 04:58N 34°03' W 119°45'0 0.0
2018-Jun-17 04:22N 34°03' W 119°45'0 0.0
2018-Jun-17 03:58N 34°03' W 119°45'0 0.0
2018-Jun-17 03:25N 34°03' W 119°45'0 0.0
2018-Jun-17 03:00N 34°03' W 119°45'3 5.4
2018-Jun-17 02:25N 34°06' W 119°47'0 0.5
2018-Jun-17 01:52N 34°06' W 119°47'3 6.2
2018-Jun-17 01:25N 34°04' W 119°45'1 1.5
2018-Jun-17 00:53N 34°03' W 119°45'2 4.0
2018-Jun-17 00:28N 34°03' W 119°43'1 0.7
2018-Jun-16 23:17N 34°02' W 119°42'0 0.0
2018-Jun-16 22:50N 34°02' W 119°42'0 0.0
2018-Jun-16 22:20N 34°02' W 119°42'0 0.0
2018-Jun-16 21:59N 34°02' W 119°42'0 0.0
2018-Jun-16 21:26N 34°02' W 119°42'0 0.0
2018-Jun-16 20:59N 34°02' W 119°42'0 0.0
2018-Jun-16 20:29N 34°02' W 119°42'0 0.4
2018-Jun-16 19:59N 34°02' W 119°42'1 0.8
2018-Jun-16 19:04N 34°03' W 119°43'0 0.0
2018-Jun-16 18:58N 34°03' W 119°43'0 0.0
2018-Jun-16 18:25N 34°03' W 119°43'0 0.0
2018-Jun-16 17:58N 34°03' W 119°43'2 1.6
2018-Jun-16 16:38N 34°03' W 119°45'0 0.0
2018-Jun-16 16:29N 34°03' W 119°45'0 0.0
2018-Jun-16 15:56N 34°03' W 119°45'0 0.0
2018-Jun-16 15:23N 34°03' W 119°45'0 0.0
2018-Jun-16 14:59N 34°03' W 119°45'0 0.0
2018-Jun-16 14:23N 34°03' W 119°45'0 0.0
2018-Jun-16 13:59N 34°03' W 119°45'0 0.0
2018-Jun-16 13:30N 34°03' W 119°45'4 8.0
2018-Jun-16 13:00N 34°07' W 119°47'510.3
2018-Jun-16 12:29N 34°12' W 119°46'510.0
2018-Jun-16 11:59N 34°17' W 119°44'5 9.8
2018-Jun-16 11:30N 34°21' W 119°42'3 1.6
2018-Jun-16 09:22N 34°24' W 119°42'0 0.0
2018-Jun-16 07:46N 34°24' W 119°42'0 0.0
2018-Jun-16 00:21N 34°24' W 119°41'3 7.5
2018-Jun-16 00:00N 34°22' W 119°43'610.0
2018-Jun-15 23:25N 34°17' W 119°46'10 9.9
2018-Jun-15 22:24N 34°07' W 119°50'3 1.6
2018-Jun-15 20:20N 34°04' W 119°51'0 0.0
2018-Jun-15 19:32N 34°04' W 119°51'0 0.4
2018-Jun-15 19:23N 34°04' W 119°51'2 0.7
2018-Jun-15 17:17N 34°05' W 119°52'310.6
2018-Jun-15 17:00N 34°08' W 119°50'610.2
2018-Jun-15 16:24N 34°14' W 119°47'7 9.9
2018-Jun-15 15:42N 34°20' W 119°43'210.3
2018-Jun-15 15:28N 34°22' W 119°42'3 0.2
2018-Jun-15 01:11N 34°24' W 119°42'0 0.0
2018-Jun-15 00:53N 34°24' W 119°42'0 0.0
2018-Jun-14 23:11N 34°24' W 119°42'0 0.0
2018-Jun-14 22:59N 34°24' W 119°42'0 0.0
2018-Jun-14 21:50N 34°24' W 119°42'0 0.0
2018-Jun-14 21:17N 34°24' W 119°42'0 0.0
2018-Jun-14 20:53N 34°24' W 119°42'0 0.0
2018-Jun-14 20:26N 34°24' W 119°42'0 0.0
2018-Jun-14 16:17N 34°24' W 119°42'0 0.0
2018-Jun-14 13:50N 34°24' W 119°42'0 0.0
2018-Jun-14 12:17N 34°24' W 119°42'0 0.0
2018-Jun-14 11:53N 34°24' W 119°42'0 0.0
2018-Jun-14 09:44N 34°24' W 119°42'0 0.0
2018-Jun-14 08:08N 34°24' W 119°42'0 0.0
2018-Jun-14 06:41N 34°24' W 119°42'0 0.0
2018-Jun-14 05:50N 34°24' W 119°42'0 0.0
2018-Jun-14 05:11N 34°24' W 119°42'0 0.0
2018-Jun-14 04:59N 34°24' W 119°42'0 0.0
2018-Jun-14 04:26N 34°24' W 119°42'0 0.0
2018-Jun-14 03:59N 34°24' W 119°42'0 0.0
2018-Jun-14 03:29N 34°24' W 119°42'0 0.0
2018-Jun-13 23:14N 34°24' W 119°42'0 0.0
2018-Jun-13 22:59N 34°24' W 119°42'0 0.0
2018-Jun-13 22:11N 34°24' W 119°42'0 0.0
2018-Jun-13 21:47N 34°24' W 119°42'0 0.0
2018-Jun-13 21:20N 34°24' W 119°42'0 0.0
2018-Jun-13 19:02N 34°24' W 119°42'0 0.0
2018-Jun-13 18:59N 34°24' W 119°42'0 0.0
2018-Jun-13 18:29N 34°24' W 119°42'0 0.0
2018-Jun-13 17:59N 34°24' W 119°42'0 0.0
2018-Jun-13 17:29N 34°24' W 119°42'0 0.0
2018-Jun-13 16:59N 34°24' W 119°42'0 0.0
2018-Jun-13 12:12N 34°24' W 119°42'0 0.0
2018-Jun-13 11:59N 34°24' W 119°42'0 0.0
2018-Jun-13 11:29N 34°24' W 119°42'0 0.0
2018-Jun-13 10:20N 34°24' W 119°42'0 0.0
2018-Jun-13 08:14N 34°24' W 119°42'0 0.0
2018-Jun-13 07:56N 34°24' W 119°42'0 0.0
2018-Jun-13 05:50N 34°24' W 119°42'0 0.0
2018-Jun-13 04:35N 34°24' W 119°42'0 0.0
2018-Jun-13 04:29N 34°24' W 119°42'0 0.0
2018-Jun-13 03:59N 34°24' W 119°42'0 0.0
2018-Jun-13 02:38N 34°24' W 119°42'0 0.0
2018-Jun-13 02:11N 34°24' W 119°42'0 0.0
2018-Jun-13 01:57N 34°24' W 119°42'0 0.0
2018-Jun-13 01:29N 34°24' W 119°42'0 0.0
2018-Jun-13 00:56N 34°24' W 119°42'0 0.1
2018-Jun-13 00:02N 34°24' W 119°41'0 0.0
2018-Jun-12 23:50N 34°24' W 119°41'1 1.5
2018-Jun-12 23:29N 34°24' W 119°41'510.7
2018-Jun-12 23:00N 34°19' W 119°40'611.2
2018-Jun-12 22:28N 34°13' W 119°40'610.9
2018-Jun-12 21:57N 34°07' W 119°39'2 5.6
2018-Jun-12 21:31N 34°05' W 119°38'0 0.2
2018-Jun-12 21:00N 34°05' W 119°38'1 2.0
2018-Jun-12 20:30N 34°05' W 119°37'2 3.3
2018-Jun-12 20:00N 34°04' W 119°36'2 3.9
2018-Jun-12 19:26N 34°03' W 119°33'0 0.0
2018-Jun-12 18:56N 34°03' W 119°33'0 0.1
2018-Jun-12 18:26N 34°03' W 119°33'0 0.0
2018-Jun-12 17:56N 34°03' W 119°33'0 0.0
2018-Jun-12 17:23N 34°03' W 119°33'0 0.0
2018-Jun-12 16:59N 34°03' W 119°33'0 0.2
2018-Jun-12 16:25N 34°03' W 119°33'0 0.0
2018-Jun-12 15:52N 34°03' W 119°33'0 0.0
2018-Jun-12 15:28N 34°03' W 119°33'0 0.0
2018-Jun-12 14:58N 34°03' W 119°33'0 0.1
2018-Jun-12 14:22N 34°03' W 119°33'0 0.0
2018-Jun-12 13:43N 34°03' W 119°33'0 1.4
2018-Jun-12 13:30N 34°03' W 119°33'3 0.2
2018-Jun-11 22:49N 34°01' W 119°32'3 9.5
2018-Jun-11 22:27N 34°01' W 119°28'4 7.4
2018-Jun-11 21:55N 34°01' W 119°23'1 1.0
2018-Jun-11 21:25N 34°01' W 119°22'0 0.0
2018-Jun-11 20:55N 34°01' W 119°22'0 0.0
2018-Jun-11 20:25N 34°01' W 119°22'0 0.0
2018-Jun-11 19:58N 34°01' W 119°22'0 0.0
2018-Jun-11 19:28N 34°01' W 119°22'0 0.0
2018-Jun-11 18:58N 34°01' W 119°22'0 0.0
2018-Jun-11 18:30N 34°01' W 119°22'1 1.0
2018-Jun-11 18:00N 34°01' W 119°22'0 0.0
2018-Jun-11 17:30N 34°01' W 119°22'0 0.0
2018-Jun-11 17:00N 34°01' W 119°22'0 0.0
2018-Jun-11 16:30N 34°01' W 119°22'0 0.0
2018-Jun-11 15:57N 34°01' W 119°22'0 0.0
2018-Jun-11 15:30N 34°01' W 119°22'0 0.0
2018-Jun-11 15:00N 34°01' W 119°22'0 0.0
2018-Jun-11 14:27N 34°01' W 119°22'0 0.0
2018-Jun-11 14:00N 34°01' W 119°22'4 7.7
2018-Jun-11 13:30N 34°01' W 119°26'4 0.5
2018-Jun-11 04:37N 34°02' W 119°31'210.7
2018-Jun-11 04:28N 34°03' W 119°33'5 9.8
2018-Jun-11 04:00N 34°03' W 119°38'3 5.3
2018-Jun-11 03:25N 34°02' W 119°42'0 0.0
2018-Jun-11 01:40N 34°02' W 119°42'0 0.2
2018-Jun-11 01:13N 34°02' W 119°42'3 9.1
2018-Jun-11 00:56N 34°03' W 119°45'510.0
2018-Jun-11 00:25N 34°04' W 119°51'510.8
2018-Jun-10 23:59N 34°05' W 119°57'5 9.3
2018-Jun-10 23:27N 34°02' W 120°02'2 0.7
2018-Jun-10 20:36N 34°01' W 120°03'0 0.0
2018-Jun-10 17:39N 34°01' W 120°03'0 0.0
2018-Jun-10 17:09N 34°01' W 120°03'0 0.0
2018-Jun-10 16:48N 34°01' W 120°03'0 0.0
2018-Jun-10 16:21N 34°01' W 120°03'0 0.0
2018-Jun-10 15:18N 34°01' W 120°03'2 5.7
2018-Jun-10 14:59N 34°02' W 120°02'10 9.8
2018-Jun-10 14:00N 34°11' W 120°05'5 9.6
2018-Jun-10 13:29N 34°16' W 120°07'5 9.7
2018-Jun-10 12:58N 34°21' W 120°09'4 7.8
2018-Jun-10 12:30N 34°25' W 120°09'610.5
2018-Jun-10 11:56N 34°25' W 120°02'510.3
2018-Jun-10 11:27N 34°24' W 119°56'510.3
2018-Jun-10 10:59N 34°23' W 119°50'7 1.3
2018-Jun-10 05:10N 34°24' W 119°41'0 0.2
2018-Jun-10 04:52N 34°24' W 119°42'0 0.0
2018-Jun-10 00:32N 34°24' W 119°42'0 2.0
2018-Jun-10 00:27N 34°24' W 119°41'7 9.2
2018-Jun-09 23:44N 34°18' W 119°44'310.1
2018-Jun-09 23:24N 34°15' W 119°46'5 9.8
2018-Jun-09 22:51N 34°10' W 119°48'410.0
2018-Jun-09 22:24N 34°06' W 119°50'2 3.7
2018-Jun-09 21:50N 34°04' W 119°51'0 0.0
2018-Jun-09 21:05N 34°04' W 119°51'0 0.0
2018-Jun-09 20:50N 34°04' W 119°51'0 0.0
2018-Jun-09 20:17N 34°04' W 119°51'0 0.0
2018-Jun-09 19:54N 34°04' W 119°51'2 0.9
2018-Jun-09 18:03N 34°04' W 119°53'0 0.0
2018-Jun-09 17:35N 34°04' W 119°53'0 0.0
2018-Jun-09 17:28N 34°04' W 119°53'4 8.0
2018-Jun-09 17:00N 34°07' W 119°50'  

Dump ship's entire track history